Time;durP1;ratioP1;P1;durP2;ratioP2;P2;SDS_P1;SDS_P2;PMS_P1;PMS_P2;Temp;Humidity;BMP_temperature;BMP_pressure;BME280_temperature;BME280_humidity;BME280_pressure;Samples;Min_cycle;Max_cycle;Signal;HPM_P1;HPM_P2
2021/01/23 00:01:14;;;;;;;6.30;3.20;;;231.20;1996.80;;;;;;5097284;28;20024;-67
2021/01/23 00:03:40;;;;;;;13.40;3.38;;;231.20;1996.80;;;;;;5098029;28;20023;-67
2021/01/23 00:06:05;;;;;;;7.25;3.78;;;231.20;1996.80;;;;;;5097834;28;20062;-67
2021/01/23 00:08:31;;;;;;;8.77;3.88;;;231.10;1996.80;;;;;;5097179;28;20127;-66
2021/01/23 00:10:57;;;;;;;5.50;3.53;;;231.10;1971.20;;;;;;5097477;28;20116;-66
2021/01/23 00:13:23;;;;;;;9.35;3.85;;;231.10;1996.80;;;;;;5097948;28;20020;-66
2021/01/23 00:15:49;;;;;;;6.63;3.60;;;231.00;1996.80;;;;;;5097691;28;20073;-66
2021/01/23 00:18:14;;;;;;;7.22;3.38;;;231.00;1996.80;;;;;;5097948;28;20024;-66
2021/01/23 00:20:40;;;;;;;7.35;3.22;;;231.00;1996.80;;;;;;5097585;28;20031;-66
2021/01/23 00:23:06;;;;;;;6.53;3.30;;;231.00;1996.80;;;;;;5097595;28;20024;-66
2021/01/23 00:25:31;;;;;;;7.50;3.30;;;231.00;1996.80;;;;;;5097819;28;20056;-66
2021/01/23 00:27:57;;;;;;;6.13;3.60;;;231.00;1996.80;;;;;;5097190;28;20437;-66
2021/01/23 00:30:23;;;;;;;6.57;3.13;;;231.10;1971.20;;;;;;5097485;28;20418;-66
2021/01/23 00:32:49;;;;;;;11.35;3.47;;;231.10;1971.20;;;;;;5097713;28;20325;-66
2021/01/23 00:35:15;;;;;;;10.75;3.30;;;231.00;1996.80;;;;;;5097397;28;20032;-66
2021/01/23 00:37:41;;;;;;;5.30;2.88;;;231.10;1971.20;;;;;;5097723;28;20024;-66
2021/01/23 00:40:07;;;;;;;5.75;3.28;;;231.10;1971.20;;;;;;5097585;28;20055;-66
2021/01/23 00:42:33;;;;;;;6.55;3.00;;;231.10;1971.20;;;;;;5097403;28;20157;-66
2021/01/23 00:44:59;;;;;;;9.93;3.22;;;231.10;1971.20;;;;;;5097542;28;20386;-66
2021/01/23 00:47:24;;;;;;;8.90;3.15;;;231.30;1945.60;;;;;;5098534;28;20299;-66
2021/01/23 00:49:50;;;;;;;6.18;2.75;;;231.30;1945.60;;;;;;5101239;28;20031;-66
2021/01/23 00:52:16;;;;;;;8.40;3.65;;;231.30;1945.60;;;;;;5101496;28;20070;-66
2021/01/23 00:54:42;;;;;;;4.43;2.45;;;231.30;1945.60;;;;;;5101763;28;20024;-66
2021/01/23 00:57:07;;;;;;;7.97;2.83;;;256.00;1945.60;;;;;;5101120;28;20051;-66
2021/01/23 00:59:34;;;;;;;6.30;2.90;;;256.00;1945.60;;;;;;5101315;28;20093;-66
2021/01/23 01:01:59;;;;;;;10.48;4.07;;;256.10;1920.00;;;;;;5101336;28;20097;-66
2021/01/23 01:04:25;;;;;;;9.50;3.58;;;256.10;1920.00;;;;;;5100809;28;20445;-65
2021/01/23 01:06:51;;;;;;;6.35;3.35;;;256.10;1945.60;;;;;;5101199;28;20020;-66
2021/01/23 01:09:17;;;;;;;9.20;2.97;;;256.10;1945.60;;;;;;5101111;28;20059;-67
2021/01/23 01:11:42;;;;;;;11.38;3.10;;;256.00;1945.60;;;;;;5100851;28;20028;-66
2021/01/23 01:14:08;;;;;;;6.35;4.03;;;256.10;1945.60;;;;;;5101375;28;20027;-66
2021/01/23 01:16:34;;;;;;;7.82;2.92;;;256.10;1920.00;;;;;;5101043;28;20371;-66
2021/01/23 01:19:00;;;;;;;6.80;3.72;;;256.20;1920.00;;;;;;5101269;28;20042;-66
2021/01/23 01:21:26;;;;;;;8.73;3.38;;;256.10;1945.60;;;;;;5101101;28;20210;-66
2021/01/23 01:23:51;;;;;;;8.80;3.45;;;256.00;1945.60;;;;;;5100813;28;20024;-66
2021/01/23 01:26:17;;;;;;;8.45;3.25;;;256.00;1920.00;;;;;;5100832;28;20034;-66
2021/01/23 01:28:43;;;;;;;7.68;3.20;;;256.00;1945.60;;;;;;5100714;28;20052;-65
2021/01/23 01:31:09;;;;;;;10.55;3.47;;;256.00;1945.60;;;;;;5100470;28;20062;-66
2021/01/23 01:33:35;;;;;;;8.45;3.38;;;256.00;1945.60;;;;;;5100711;28;20321;-66
2021/01/23 01:36:01;;;;;;;7.40;3.03;;;231.30;1945.60;;;;;;5100118;28;20028;-66
2021/01/23 01:38:26;;;;;;;7.38;3.60;;;231.30;1945.60;;;;;;5100056;28;20032;-66
2021/01/23 01:40:52;;;;;;;9.20;3.00;;;231.30;1945.60;;;;;;5101143;28;20095;-66
2021/01/23 01:43:19;;;;;;;5.32;3.10;;;231.30;1945.60;;;;;;5100562;28;20024;-66
2021/01/23 01:45:45;;;;;;;8.23;2.78;;;231.30;1945.60;;;;;;5099898;28;20102;-66
2021/01/23 01:48:11;;;;;;;8.65;3.47;;;231.30;1945.60;;;;;;5100395;28;20036;-66
2021/01/23 01:50:39;;;;;;;6.78;2.50;;;256.00;1920.00;;;;;;5100330;28;20028;-66
2021/01/23 01:53:06;;;;;;;10.95;3.53;;;256.00;1945.60;;;;;;5100366;28;20024;-66
2021/01/23 01:55:33;;;;;;;6.47;2.97;;;256.00;1920.00;;;;;;5100016;28;20124;-66
2021/01/23 01:58:03;;;;;;;5.55;2.55;;;256.10;1920.00;;;;;;5100195;28;20055;-66
2021/01/23 02:00:30;;;;;;;9.98;2.63;;;256.00;1920.00;;;;;;5100273;28;20061;-66
2021/01/23 02:03:10;;;;;;;7.32;2.80;;;256.10;1920.00;;;;;;5100208;28;20020;-66
2021/01/23 02:06:03;;;;;;;6.68;2.38;;;256.10;1920.00;;;;;;5099549;28;20059;-66
2021/01/23 02:08:44;;;;;;;6.70;2.42;;;256.20;1894.40;;;;;;5099755;28;20039;-66
2021/01/23 02:11:37;;;;;;;6.68;2.90;;;256.20;1920.00;;;;;;5100300;28;20034;-66
2021/01/23 02:14:25;;;;;;;4.63;2.40;;;256.40;1894.40;;;;;;5099785;28;20409;-65
2021/01/23 02:16:52;;;;;;;7.97;2.88;;;256.40;1894.40;;;;;;5099922;28;20031;-65
2021/01/23 02:19:29;;;;;;;6.35;2.47;;;256.40;1868.80;;;;;;5100117;28;20024;-66
2021/01/23 02:22:17;;;;;;;8.07;2.60;;;256.50;1868.80;;;;;;5099824;28;20016;-66
2021/01/23 02:24:47;;;;;;;6.97;2.60;;;256.50;1868.80;;;;;;5100060;28;20024;-65
2021/01/23 02:27:45;;;;;;;6.80;2.58;;;256.50;1868.80;;;;;;5099194;28;20023;-66
2021/01/23 02:30:26;;;;;;;6.57;2.25;;;256.60;1843.20;;;;;;5099900;28;20074;-66
2021/01/23 02:32:56;;;;;;;5.68;2.20;;;256.50;1868.80;;;;;;5099949;28;20119;-66
2021/01/23 02:35:25;;;;;;;7.65;3.20;;;256.60;1843.20;;;;;;5099045;28;20020;-66
2021/01/23 02:37:53;;;;;;;8.15;2.15;;;256.60;1843.20;;;;;;5099534;28;20024;-66
2021/01/23 02:40:20;;;;;;;10.90;2.53;;;256.60;1843.20;;;;;;5099437;28;20036;-66
2021/01/23 02:42:49;;;;;;;5.50;2.03;;;256.70;1817.60;;;;;;5099432;28;20016;-66
2021/01/23 02:45:15;;;;;;;6.95;2.75;;;256.70;1843.20;;;;;;5099627;28;20028;-66
2021/01/23 02:47:41;;;;;;;5.43;1.95;;;256.70;1843.20;;;;;;5099213;28;20065;-65
2021/01/23 02:50:09;;;;;;;6.72;2.35;;;256.70;1843.20;;;;;;5099513;28;20056;-66
2021/01/23 02:52:40;;;;;;;5.45;2.30;;;256.80;1817.60;;;;;;5099527;28;20016;-65
2021/01/23 02:55:16;;;;;;;8.98;2.15;;;256.80;1817.60;;;;;;5098923;28;20136;-66
2021/01/23 02:57:43;;;;;;;5.28;2.10;;;256.80;1817.60;;;;;;5099366;28;20028;-66
2021/01/23 03:00:11;;;;;;;6.38;2.47;;;256.80;1817.60;;;;;;5098786;28;20024;-66
2021/01/23 03:02:42;;;;;;;6.93;2.13;;;256.80;1817.60;;;;;;5098974;28;20057;-65
2021/01/23 03:05:09;;;;;;;5.65;2.20;;;256.80;1792.00;;;;;;5099202;28;20067;-66
2021/01/23 03:07:35;;;;;;;5.20;1.80;;;256.80;1817.60;;;;;;5099143;28;20402;-66
2021/01/23 03:10:08;;;;;;;5.65;1.83;;;256.80;1792.00;;;;;;5098038;28;20023;-65
2021/01/23 03:12:34;;;;;;;5.43;1.98;;;256.80;1792.00;;;;;;5098768;28;20337;-66
2021/01/23 03:15:00;;;;;;;8.68;2.22;;;256.80;1817.60;;;;;;5098748;28;20024;-66
2021/01/23 03:17:27;;;;;;;10.30;2.38;;;256.70;1817.60;;;;;;5098704;28;20107;-66
2021/01/23 03:19:53;;;;;;;6.13;2.00;;;256.80;1792.00;;;;;;5098375;28;20346;-66
2021/01/23 03:22:19;;;;;;;8.38;2.00;;;256.70;1817.60;;;;;;5098608;28;20028;-66
2021/01/23 03:24:45;;;;;;;4.95;2.03;;;256.70;1817.60;;;;;;5098286;28;20030;-66
2021/01/23 03:27:11;;;;;;;3.88;2.00;;;256.70;1792.00;;;;;;5098526;28;20028;-66
2021/01/23 03:29:37;;;;;;;3.08;1.73;;;256.80;1817.60;;;;;;5097860;28;20034;-66
2021/01/23 03:32:03;;;;;;;12.93;2.30;;;256.80;1792.00;;;;;;5098348;28;20028;-65
2021/01/23 03:34:29;;;;;;;7.68;1.90;;;256.80;1792.00;;;;;;5098675;28;20110;-66
2021/01/23 03:36:55;;;;;;;4.45;1.95;;;256.80;1792.00;;;;;;5098007;28;20107;-65
2021/01/23 03:39:21;;;;;;;8.60;2.22;;;256.90;1766.40;;;;;;5098034;28;20024;-66
2021/01/23 03:41:46;;;;;;;4.97;1.95;;;256.90;1792.00;;;;;;5098516;28;20028;-66
2021/01/23 03:44:12;;;;;;;9.75;2.25;;;256.90;1766.40;;;;;;5097915;28;20059;-66
2021/01/23 03:46:39;;;;;;;6.20;1.73;;;256.90;1792.00;;;;;;5098489;28;20335;-65
2021/01/23 03:49:05;;;;;;;6.55;2.08;;;256.90;1766.40;;;;;;5098360;28;20028;-66
2021/01/23 03:51:31;;;;;;;6.15;2.00;;;256.90;1766.40;;;;;;5098118;28;20133;-66
2021/01/23 03:53:56;;;;;;;6.72;2.00;;;256.90;1792.00;;;;;;5097722;28;20028;-66
2021/01/23 03:56:22;;;;;;;4.65;1.70;;;256.90;1792.00;;;;;;5098041;28;20028;-66
2021/01/23 03:58:48;;;;;;;6.47;1.80;;;256.90;1766.40;;;;;;5098030;28;20086;-65
2021/01/23 04:01:14;;;;;;;5.60;1.73;;;281.60;1792.00;;;;;;5097679;28;20024;-66
2021/01/23 04:03:40;;;;;;;5.85;1.98;;;281.60;1792.00;;;;;;5097634;28;20321;-66
2021/01/23 04:06:06;;;;;;;6.13;1.80;;;281.70;1766.40;;;;;;5097146;28;20508;-66
2021/01/23 04:08:32;;;;;;;4.78;1.98;;;281.60;1766.40;;;;;;5097720;28;20038;-66
2021/01/23 04:10:58;;;;;;;7.00;2.00;;;281.70;1792.00;;;;;;5097455;28;20035;-66
2021/01/23 04:13:24;;;;;;;6.35;1.90;;;281.70;1792.00;;;;;;5097463;28;20073;-66
2021/01/23 04:15:54;;;;;;;5.25;1.80;;;281.70;1792.00;;;;;;5097359;28;20028;-66
2021/01/23 04:18:20;;;;;;;6.05;2.28;;;281.70;1766.40;;;;;;5097929;28;20039;-66
2021/01/23 04:20:46;;;;;;;4.63;2.30;;;281.80;1766.40;;;;;;5094001;28;20437;-66
2021/01/23 04:23:12;;;;;;;4.97;1.90;;;281.70;1792.00;;;;;;5078521;28;20035;-66
2021/01/23 04:25:38;;;;;;;4.90;1.75;;;281.70;1766.40;;;;;;5077024;28;20021;-66
2021/01/23 04:28:04;;;;;;;6.53;2.15;;;281.70;1792.00;;;;;;5076801;28;20430;-66
2021/01/23 04:30:30;;;;;;;4.78;1.45;;;281.60;1792.00;;;;;;5077553;28;20077;-66
2021/01/23 04:32:55;;;;;;;6.40;1.75;;;281.70;1766.40;;;;;;5076952;28;20346;-65
2021/01/23 04:35:21;;;;;;;6.82;1.70;;;281.80;1740.80;;;;;;5076913;28;20020;-66
2021/01/23 04:37:47;;;;;;;5.15;1.63;;;281.80;1740.80;;;;;;5078552;28;20033;-65
2021/01/23 04:40:14;;;;;;;4.28;2.00;;;281.70;1766.40;;;;;;5096737;28;20073;-65
2021/01/23 04:42:42;;;;;;;6.28;1.95;;;281.80;1740.80;;;;;;5097338;28;20437;-65
2021/01/23 04:45:11;;;;;;;5.50;1.90;;;281.80;1740.80;;;;;;5097558;28;20024;-65
2021/01/23 04:47:37;;;;;;;4.20;1.98;;;281.80;1740.80;;;;;;5097240;28;20032;-64
2021/01/23 04:50:08;;;;;;;3.55;1.60;;;281.70;1766.40;;;;;;5097586;28;20024;-65
2021/01/23 04:52:36;;;;;;;6.88;2.78;;;281.60;1792.00;;;;;;5097227;28;20035;-65
2021/01/23 04:55:03;;;;;;;7.53;2.03;;;256.90;1766.40;;;;;;5097283;28;20016;-65
2021/01/23 04:57:29;;;;;;;5.45;2.05;;;256.90;1740.80;;;;;;5097224;28;20024;-66
2021/01/23 04:59:55;;;;;;;3.92;1.80;;;256.80;1766.40;;;;;;5097182;28;20433;-65
2021/01/23 05:02:22;;;;;;;5.78;1.60;;;256.80;1766.40;;;;;;5097202;28;20321;-65
2021/01/23 05:05:00;;;;;;;2.58;1.58;;;256.80;1766.40;;;;;;5097254;28;20052;-65
2021/01/23 05:07:29;;;;;;;4.00;1.70;;;256.80;1766.40;;;;;;5086304;28;20085;-65
2021/01/23 05:10:15;;;;;;;;;;;256.80;1766.40;;;;;;5075135;28;20032;-65
2021/01/23 05:12:43;;;;;;;6.93;2.05;;;256.70;1766.40;;;;;;5073916;28;20384;-65
2021/01/23 05:15:12;;;;;;;3.10;1.53;;;256.60;1766.40;;;;;;5074415;28;20078;-66
2021/01/23 05:17:51;;;;;;;4.20;1.60;;;256.70;1740.80;;;;;;5074900;28;20113;-65
2021/01/23 05:20:32;;;;;;;4.07;1.58;;;256.70;1766.40;;;;;;5074410;28;20043;-65
2021/01/23 05:22:59;;;;;;;5.50;1.63;;;256.70;1766.40;;;;;;5074547;28;20407;-65
2021/01/23 05:25:27;;;;;;;7.68;1.80;;;256.70;1766.40;;;;;;5074186;28;20028;-65
2021/01/23 05:27:53;;;;;;;4.97;1.83;;;256.60;1766.40;;;;;;5074637;28;20131;-65
2021/01/23 05:30:19;;;;;;;3.67;1.65;;;256.60;1792.00;;;;;;5073899;28;20181;-66
2021/01/23 05:32:45;;;;;;;6.60;1.80;;;256.60;1792.00;;;;;;5074528;28;20029;-65
2021/01/23 05:35:16;;;;;;;5.13;1.65;;;256.60;1792.00;;;;;;5078278;28;20132;-66
2021/01/23 05:37:42;;;;;;;2.85;1.50;;;256.60;1766.40;;;;;;5078180;28;20029;-65
2021/01/23 05:40:08;;;;;;;4.22;1.63;;;256.60;1792.00;;;;;;5078487;28;20039;-66
2021/01/23 05:42:42;;;;;;;4.75;1.70;;;256.60;1766.40;;;;;;5078043;28;20025;-65
2021/01/23 05:45:10;;;;;;;5.20;1.65;;;256.60;1766.40;;;;;;5077681;28;20345;-66
2021/01/23 05:47:37;;;;;;;3.53;1.55;;;256.60;1792.00;;;;;;5078165;28;20021;-65
2021/01/23 05:50:05;;;;;;;4.93;2.30;;;256.60;1792.00;;;;;;5077933;28;20028;-66
2021/01/23 05:52:31;;;;;;;4.40;2.08;;;256.50;1792.00;;;;;;5078103;28;20029;-65
2021/01/23 05:54:57;;;;;;;3.15;1.60;;;256.50;1792.00;;;;;;5077854;28;20032;-66
2021/01/23 05:57:25;;;;;;;6.85;1.98;;;256.50;1792.00;;;;;;5077507;28;20020;-65
2021/01/23 05:59:51;;;;;;;5.13;2.85;;;256.50;1792.00;;;;;;5078037;28;20028;-66
2021/01/23 06:02:18;;;;;;;6.25;4.32;;;256.40;1817.60;;;;;;5078032;28;20032;-66
2021/01/23 06:04:51;;;;;;;10.48;7.47;;;256.40;1817.60;;;;;;5077142;28;20387;-65
2021/01/23 06:07:43;;;;;;;10.23;4.72;;;256.50;1792.00;;;;;;5077485;28;20052;-65
2021/01/23 06:10:36;;;;;;;11.63;10.35;;;256.50;1792.00;;;;;;5077693;28;20106;-66
2021/01/23 06:13:02;;;;;;;8.27;4.30;;;256.40;1817.60;;;;;;5076465;28;20429;-65
2021/01/23 06:15:38;;;;;;;9.25;2.55;;;256.50;1817.60;;;;;;5077422;28;20025;-66
2021/01/23 06:18:05;;;;;;;97.70;43.50;;;256.50;1817.60;;;;;;5077232;28;20032;-66
2021/01/23 06:20:42;;;;;;;115.63;59.72;;;256.50;1817.60;;;;;;5079954;28;20031;-65
2021/01/23 06:23:20;;;;;;;83.05;55.20;;;256.50;1792.00;;;;;;5080225;28;20031;-66
2021/01/23 06:25:49;;;;;;;89.63;56.55;;;256.60;1792.00;;;;;;5077382;28;20063;-65
2021/01/23 06:28:21;;;;;;;55.00;35.72;;;256.50;1817.60;;;;;;5077346;28;20036;-65
2021/01/23 06:30:47;;;;;;;51.40;31.05;;;256.50;1817.60;;;;;;5077213;28;20115;-65
2021/01/23 06:33:33;;;;;;;64.18;36.92;;;256.70;1894.40;;;;;;5076885;28;20028;-65
2021/01/23 06:36:01;;;;;;;85.43;45.95;;;256.80;1868.80;;;;;;5077321;28;20032;-65
2021/01/23 06:38:31;;;;;;;25.58;17.15;;;256.80;1843.20;;;;;;5077024;28;20115;-66
2021/01/23 06:41:26;;;;;;;17.33;13.38;;;256.80;1817.60;;;;;;5076943;28;20357;-65
2021/01/23 06:44:06;;;;;;;19.67;12.57;;;256.90;1843.20;;;;;;5076480;28;20029;-65
2021/01/23 06:46:37;;;;;;;18.13;15.75;;;281.60;1868.80;;;;;;5075946;28;20103;-66
2021/01/23 06:49:04;;;;;;;9.57;6.07;;;281.60;1843.20;;;;;;5077032;28;20046;-64
2021/01/23 06:51:30;;;;;;;12.98;5.18;;;281.70;1817.60;;;;;;5077126;28;20021;-66
2021/01/23 06:54:19;;;;;;;6.78;5.63;;;281.70;1792.00;;;;;;5076540;28;20036;-65
2021/01/23 06:56:48;;;;;;;11.65;5.20;;;281.70;1792.00;;;;;;5076472;28;20027;-66
2021/01/23 06:59:28;;;;;;;8.10;6.13;;;281.70;1817.60;;;;;;5076579;28;20032;-65
2021/01/23 07:02:04;;;;;;;14.25;5.15;;;281.70;1792.00;;;;;;5078939;28;20035;-65
2021/01/23 07:04:34;;;;;;;7.90;4.28;;;281.80;1817.60;;;;;;5076581;28;20121;-66
2021/01/23 07:07:05;;;;;;;5.88;2.90;;;281.90;1792.00;;;;;;5076278;28;20111;-65
2021/01/23 07:09:54;;;;;;;6.07;2.70;;;281.90;1792.00;;;;;;5076275;28;20047;-66
2021/01/23 07:12:38;;;;;;;5.57;2.97;;;281.90;1792.00;;;;;;5076624;28;20059;-66
2021/01/23 07:15:06;;;;;;;8.70;2.85;;;282.00;1792.00;;;;;;5075976;28;20024;-66
2021/01/23 07:17:41;;;;;;;4.43;2.08;;;282.00;1817.60;;;;;;5076174;28;20380;-65
2021/01/23 07:20:12;;;;;;;28.80;3.20;;;282.00;1817.60;;;;;;5076351;28;20032;-66
2021/01/23 07:22:39;;;;;;;4.45;2.00;;;282.10;1792.00;;;;;;5075736;28;20410;-65
2021/01/23 07:25:07;;;;;;;4.68;2.00;;;282.10;1792.00;;;;;;5075503;28;20098;-66
2021/01/23 07:27:35;;;;;;;7.50;4.30;;;282.10;1792.00;;;;;;5075413;28;20032;-65
2021/01/23 07:30:01;;;;;;;4.30;2.40;;;282.20;1792.00;;;;;;5076201;28;20070;-66
2021/01/23 07:32:40;;;;;;;5.85;2.65;;;282.20;1792.00;;;;;;5075500;28;20047;-66
2021/01/23 07:35:06;;;;;;;;;;;282.30;1766.40;;;;;;5076322;28;20410;-66
2021/01/23 07:37:45;;;;;;;5.18;2.10;;;282.40;1766.40;;;;;;5079666;28;20328;-65
2021/01/23 07:40:22;;;;;;;6.15;2.38;;;282.40;1792.00;;;;;;5095889;28;20039;-65
2021/01/23 07:42:50;;;;;;;7.18;2.20;;;282.40;1766.40;;;;;;5095965;28;20031;-65
2021/01/23 07:45:18;;;;;;;4.10;1.92;;;282.40;1792.00;;;;;;5096138;28;20027;-65
2021/01/23 07:48:13;;;;;;;4.38;2.42;;;282.40;1792.00;;;;;;5095968;28;20062;-65
2021/01/23 07:50:41;;;;;;;4.35;2.13;;;282.50;1766.40;;;;;;5084085;28;20052;-65
2021/01/23 07:53:18;;;;;;;4.88;2.30;;;307.20;1792.00;;;;;;5094670;28;20093;-66
2021/01/23 07:55:45;;;;;;;4.18;2.60;;;307.20;1766.40;;;;;;5095384;28;20028;-65
2021/01/23 07:59:04;;;;;;;;;;;;;;;;;;;;;
2021/01/23 08:01:39;;;;;;;7.18;3.30;;;307.30;1766.40;;;;;;5035062;28;20033;-69
2021/01/23 08:04:34;;;;;;;6.38;3.33;;;307.40;1766.40;;;;;;5035849;28;20030;-72
2021/01/23 08:07:43;;;;;;;5.38;2.58;;;307.40;1740.80;;;;;;5029748;28;20033;-69
2021/01/23 08:10:20;;;;;;;;;;;307.50;1740.80;;;;;;5046925;28;20032;-72
2021/01/23 08:13:29;;;;;;;5.80;2.90;;;307.60;1740.80;;;;;;5044159;28;19913;-67
2021/01/23 08:16:15;;;;;;;3.42;1.98;;;307.50;1740.80;;;;;;5035998;28;20041;-66
2021/01/23 08:18:43;;;;;;;4.63;2.47;;;307.60;1740.80;;;;;;5051966;28;20368;-66
2021/01/23 08:21:18;;;;;;;5.10;1.88;;;307.70;1740.80;;;;;;5043526;28;20025;-66
2021/01/23 08:23:44;;;;;;;3.33;1.85;;;307.70;1740.80;;;;;;5032581;28;20049;-65
2021/01/23 08:26:09;;;;;;;5.90;2.78;;;307.70;1715.20;;;;;;5032730;28;20038;-66
2021/01/23 08:28:43;;;;;;;4.45;2.88;;;307.70;1715.20;;;;;;5032453;28;20072;-66
2021/01/23 08:31:18;;;;;;;5.88;2.55;;;307.80;1689.60;;;;;;5032333;28;20033;-66
2021/01/23 08:33:56;;;;;;;6.10;3.20;;;307.90;1715.20;;;;;;5032905;28;20111;-66
2021/01/23 08:36:29;;;;;;;12.57;3.25;;;307.80;1715.20;;;;;;5032760;28;20030;-66
2021/01/23 08:39:04;;;;;;;10.07;2.97;;;307.90;1715.20;;;;;;5079759;28;20074;-65
2021/01/23 08:41:30;;;;;;;6.30;2.88;;;307.90;1715.20;;;;;;5084964;28;20025;-65
2021/01/23 08:43:56;;;;;;;4.32;2.42;;;308.00;1689.60;;;;;;5074510;28;20031;-65
2021/01/23 08:46:22;;;;;;;6.10;2.83;;;308.00;1689.60;;;;;;5074890;28;20024;-66
2021/01/23 08:48:50;;;;;;;5.95;3.13;;;308.00;1689.60;;;;;;5078727;28;20036;-66
2021/01/23 08:51:16;;;;;;;14.27;3.73;;;332.80;1715.20;;;;;;5082654;28;20078;-66
2021/01/23 08:53:42;;;;;;;5.50;2.88;;;332.80;1715.20;;;;;;5074589;28;20024;-66
2021/01/23 08:56:08;;;;;;;5.32;2.53;;;332.80;1689.60;;;;;;5074616;28;20414;-66
2021/01/23 08:58:34;;;;;;;7.55;2.33;;;332.90;1689.60;;;;;;5077819;28;20077;-66
2021/01/23 09:01:09;;;;;;;8.55;3.35;;;333.00;1664.00;;;;;;5095041;28;20059;-69
2021/01/23 09:03:35;;;;;;;7.20;3.53;;;333.10;1664.00;;;;;;5095002;28;20056;-65
2021/01/23 09:06:01;;;;;;;9.82;3.53;;;333.10;1689.60;;;;;;5094872;28;20084;-64
2021/01/23 09:08:27;;;;;;;7.13;3.47;;;333.20;1689.60;;;;;;5095878;28;20039;-65
2021/01/23 09:10:52;;;;;;;7.40;2.58;;;333.30;1689.60;;;;;;5098917;28;20437;-65
2021/01/23 09:13:18;;;;;;;7.70;4.00;;;333.40;1664.00;;;;;;5079395;28;20437;-65
2021/01/23 09:15:44;;;;;;;5.78;3.08;;;333.40;1638.40;;;;;;5077255;28;20035;-65
2021/01/23 09:18:10;;;;;;;5.47;2.35;;;333.40;1664.00;;;;;;5084953;28;20036;-65
2021/01/23 09:20:36;;;;;;;5.78;3.50;;;333.40;1638.40;;;;;;5087257;28;20745;-65
2021/01/23 09:23:01;;;;;;;7.63;2.40;;;333.50;1612.80;;;;;;5086272;28;20024;-66
2021/01/23 09:25:27;;;;;;;4.95;2.80;;;333.60;1612.80;;;;;;5087841;28;20432;-65
2021/01/23 09:27:53;;;;;;;6.90;2.80;;;358.40;1587.20;;;;;;5087178;28;20052;-65
2021/01/23 09:30:19;;;;;;;4.63;2.80;;;358.50;1561.60;;;;;;5085860;28;20032;-65
2021/01/23 09:32:45;;;;;;;6.53;2.53;;;358.60;1561.60;;;;;;5087033;28;20031;-66
2021/01/23 09:35:12;;;;;;;7.82;4.03;;;358.60;1561.60;;;;;;5079098;28;20133;-66
2021/01/23 09:37:40;;;;;;;4.57;2.33;;;358.60;1561.60;;;;;;5087553;28;20064;-65
2021/01/23 09:40:07;;;;;;;6.22;3.47;;;358.50;1561.60;;;;;;5097754;28;20024;-65
2021/01/23 09:42:33;;;;;;;5.22;2.90;;;358.50;1561.60;;;;;;5086248;28;20033;-66
2021/01/23 09:44:59;;;;;;;6.40;2.47;;;358.60;1561.60;;;;;;5089249;28;20031;-65
2021/01/23 09:47:25;;;;;;;5.82;2.38;;;358.50;1561.60;;;;;;5091259;28;20097;-64
2021/01/23 09:49:50;;;;;;;7.50;2.35;;;358.70;1561.60;;;;;;5091614;28;20039;-65
2021/01/23 09:52:16;;;;;;;6.28;2.22;;;358.80;1536.00;;;;;;5097377;28;20035;-65
2021/01/23 09:54:42;;;;;;;7.80;4.32;;;358.80;1510.40;;;;;;5098101;28;20439;-65
2021/01/23 09:57:08;;;;;;;6.68;4.15;;;358.80;1510.40;;;;;;5097609;28;20032;-66
2021/01/23 09:59:34;;;;;;;4.22;2.50;;;358.70;1510.40;;;;;;5097747;28;20121;-66
2021/01/23 10:02:01;;;;;;;7.00;4.10;;;358.80;1510.40;;;;;;5090188;28;20088;-66
2021/01/23 10:04:27;;;;;;;8.23;4.32;;;358.80;1536.00;;;;;;5096075;28;20405;-65
2021/01/23 10:06:54;;;;;;;10.57;5.93;;;358.80;1536.00;;;;;;5094272;28;20111;-65
2021/01/23 10:09:20;;;;;;;11.50;8.45;;;358.80;1510.40;;;;;;5095463;28;20031;-65
2021/01/23 10:11:46;;;;;;;11.32;9.70;;;358.90;1510.40;;;;;;5084869;28;20415;-66
2021/01/23 10:14:12;;;;;;;19.60;17.45;;;359.00;1510.40;;;;;;5076755;28;20025;-67
2021/01/23 10:16:38;;;;;;;127.38;92.18;;;359.10;1510.40;;;;;;5077516;28;20115;-67
2021/01/23 10:19:04;;;;;;;132.38;96.85;;;359.30;1484.80;;;;;;5076408;28;20025;-63
2021/01/23 10:21:30;;;;;;;14.68;8.35;;;359.30;1510.40;;;;;;5076148;28;20024;-63
2021/01/23 10:23:57;;;;;;;9.77;4.38;;;384.00;1484.80;;;;;;5075757;28;20035;-65
2021/01/23 10:26:23;;;;;;;5.97;3.85;;;384.00;1510.40;;;;;;5077017;28;20032;-66
2021/01/23 10:28:49;;;;;;;13.77;4.40;;;359.30;1484.80;;;;;;5077389;28;20085;-66
2021/01/23 10:31:15;;;;;;;36.85;20.55;;;359.30;1484.80;;;;;;5077194;28;20024;-65
2021/01/23 10:33:41;;;;;;;9.50;7.93;;;384.00;1484.80;;;;;;5076861;28;20032;-65
2021/01/23 10:36:06;;;;;;;11.43;7.70;;;359.30;1484.80;;;;;;5075160;28;20082;-66
2021/01/23 10:38:32;;;;;;;9.07;7.03;;;384.00;1484.80;;;;;;5076122;28;20036;-66
2021/01/23 10:40:58;;;;;;;12.15;9.98;;;359.30;1484.80;;;;;;5076788;28;20028;-66
2021/01/23 10:43:24;;;;;;;10.82;6.68;;;384.10;1459.20;;;;;;5076841;28;20024;-66
2021/01/23 10:45:49;;;;;;;6.85;4.07;;;384.10;1459.20;;;;;;5076310;28;20031;-66
2021/01/23 10:48:15;;;;;;;8.75;5.93;;;384.20;1459.20;;;;;;5076155;28;20036;-66
2021/01/23 10:50:42;;;;;;;4.13;2.53;;;384.20;1484.80;;;;;;5076806;28;20436;-66
2021/01/23 10:53:08;;;;;;;5.22;1.98;;;384.40;1459.20;;;;;;5076771;28;20028;-66
2021/01/23 10:55:34;;;;;;;4.80;3.72;;;384.20;1433.60;;;;;;5076292;28;20020;-66
2021/01/23 10:58:00;;;;;;;6.20;3.65;;;384.20;1484.80;;;;;;5076568;28;20032;-66
2021/01/23 11:00:25;;;;;;;4.53;2.90;;;384.20;1459.20;;;;;;5076330;28;20053;-66
2021/01/23 11:02:51;;;;;;;4.13;1.63;;;384.10;1484.80;;;;;;5076485;28;20028;-66
2021/01/23 11:05:17;;;;;;;4.30;2.20;;;384.00;1484.80;;;;;;5076157;28;20055;-66
2021/01/23 11:07:43;;;;;;;6.22;3.20;;;384.00;1484.80;;;;;;5076176;28;20407;-69
2021/01/23 11:10:09;;;;;;;8.77;3.13;;;359.30;1510.40;;;;;;5076072;28;20391;-66
2021/01/23 11:12:35;;;;;;;5.68;3.88;;;359.20;1484.80;;;;;;5076522;28;20031;-67
2021/01/23 11:15:01;;;;;;;3.85;1.85;;;359.20;1484.80;;;;;;5075964;28;20016;-68
2021/01/23 11:17:26;;;;;;;5.88;2.55;;;359.20;1484.80;;;;;;5076257;28;20036;-70
2021/01/23 11:19:52;;;;;;;6.25;2.85;;;359.10;1510.40;;;;;;5076241;28;20310;-70
2021/01/23 11:22:18;;;;;;;4.78;2.25;;;359.20;1484.80;;;;;;5075931;28;20115;-69
2021/01/23 11:24:44;;;;;;;5.18;2.40;;;359.30;1510.40;;;;;;5075608;28;20024;-65
2021/01/23 11:27:09;;;;;;;3.28;2.05;;;359.20;1484.80;;;;;;5076501;28;20032;-65
2021/01/23 11:29:35;;;;;;;4.70;2.55;;;359.30;1484.80;;;;;;5076123;28;20043;-65
2021/01/23 11:32:01;;;;;;;3.75;2.22;;;359.30;1484.80;;;;;;5075078;28;20119;-65
2021/01/23 11:34:27;;;;;;;5.80;2.20;;;359.30;1484.80;;;;;;5076149;28;20044;-64
2021/01/23 11:36:53;;;;;;;3.35;1.92;;;359.20;1484.80;;;;;;5075875;28;20028;-65
2021/01/23 11:39:19;;;;;;;7.07;2.17;;;359.20;1484.80;;;;;;5077361;28;20040;-65
2021/01/23 11:41:45;;;;;;;4.75;2.13;;;359.20;1484.80;;;;;;5085233;28;20043;-65
2021/01/23 11:44:11;;;;;;;5.75;1.63;;;359.10;1484.80;;;;;;5087750;28;20028;-65
2021/01/23 11:46:37;;;;;;;4.45;1.67;;;359.10;1536.00;;;;;;5096266;28;20027;-65
2021/01/23 11:49:04;;;;;;;3.13;1.65;;;359.10;1510.40;;;;;;5095634;28;20383;-64
2021/01/23 11:51:30;;;;;;;19.75;2.25;;;359.10;1484.80;;;;;;5090905;28;20858;-65
2021/01/23 11:54:04;;;;;;;6.53;2.58;;;358.80;1510.40;;;;;;5091509;28;20023;-65
2021/01/23 11:56:32;;;;;;;4.00;2.00;;;358.80;1561.60;;;;;;5093973;28;20760;-65
2021/01/23 11:58:58;;;;;;;3.53;1.80;;;358.80;1510.40;;;;;;5092525;28;20454;-66
2021/01/23 12:01:23;;;;;;;7.38;2.72;;;358.80;1536.00;;;;;;5093271;28;20035;-65
2021/01/23 12:03:49;;;;;;;5.85;2.08;;;358.60;1510.40;;;;;;5093398;28;20028;-65
2021/01/23 12:06:15;;;;;;;17.05;3.25;;;358.50;1536.00;;;;;;5093546;28;20063;-65
2021/01/23 12:08:41;;;;;;;5.18;2.10;;;358.50;1536.00;;;;;;5094361;28;20075;-65
2021/01/23 12:11:06;;;;;;;4.35;2.25;;;358.40;1561.60;;;;;;5094148;28;20345;-66
2021/01/23 12:13:33;;;;;;;5.43;2.40;;;358.40;1561.60;;;;;;5093414;28;20163;-65
2021/01/23 12:15:59;;;;;;;3.75;1.70;;;358.40;1561.60;;;;;;5094996;28;20123;-64
2021/01/23 12:18:24;;;;;;;3.97;1.98;;;358.40;1561.60;;;;;;5086847;28;20032;-65
2021/01/23 12:20:50;;;;;;;4.38;2.33;;;358.40;1561.60;;;;;;5082539;28;20029;-65
2021/01/23 12:23:17;;;;;;;5.00;2.10;;;358.50;1561.60;;;;;;5083110;28;20350;-64
2021/01/23 12:25:43;;;;;;;9.38;3.03;;;358.50;1536.00;;;;;;5084638;28;20032;-64
2021/01/23 12:28:08;;;;;;;6.43;2.50;;;358.40;1536.00;;;;;;5092191;28;20319;-64